📊 Raw Sensor Data
Showing records 35876 to 35900 of 84,886 total
| ID | Distance (ft) | Battery V | Battery A | Int Temp (°F) | Int Humid (%) | Ext Temp (°F) | Solar V | RSSI | SNR | Time Stamp |
|---|---|---|---|---|---|---|---|---|---|---|
| 49023 | 15.0 | 3.81 | -5 | 63 | 49 | 64 | 0.00 | -70 | 8 | 08/12/2025 09:30 PM |
| 49022 | 15.0 | 3.81 | -5 | 64 | 49 | 64 | 0.00 | -69 | 7 | 08/12/2025 09:15 PM |
| 49021 | 15.0 | 3.81 | -5 | 65 | 50 | 65 | 0.00 | -70 | 8 | 08/12/2025 09:00 PM |
| 49020 | 15.0 | 3.91 | -5 | 66 | 52 | 66 | 0.00 | -72 | 8 | 08/12/2025 08:45 PM |
| 49019 | 15.0 | 3.92 | -5 | 68 | 53 | 67 | 0.00 | -71 | 8 | 08/12/2025 08:30 PM |
| 49018 | 15.0 | 3.82 | -5 | 70 | 55 | 68 | 1.80 | -70 | 8 | 08/12/2025 08:15 PM |
| 49017 | 15.0 | 3.90 | -10 | 74 | 54 | 70 | 4.20 | -69 | 8 | 08/12/2025 08:00 PM |
| 49016 | 15.1 | 3.84 | 0 | 78 | 55 | 73 | 4.50 | -71 | 8 | 08/12/2025 07:45 PM |
| 49015 | 15.1 | 3.94 | 0 | 82 | 54 | 76 | 4.50 | -71 | 7 | 08/12/2025 07:30 PM |
| 49014 | 15.1 | 3.96 | 7 | 86 | 53 | 79 | 4.60 | -70 | 7 | 08/12/2025 07:15 PM |
| 49013 | 15.1 | 3.98 | 0 | 89 | 53 | 83 | 4.50 | -70 | 8 | 08/12/2025 07:00 PM |
| 49012 | 15.2 | 3.98 | 16 | 91 | 52 | 83 | 4.50 | -70 | 8 | 08/12/2025 06:45 PM |
| 49011 | 15.2 | 3.91 | 0 | 93 | 51 | 85 | 5.10 | -70 | 8 | 08/12/2025 06:30 PM |
| 49010 | 15.2 | 3.93 | 0 | 95 | 50 | 87 | 5.10 | -70 | 8 | 08/12/2025 06:15 PM |
| 49009 | 15.2 | 4.07 | 0 | 97 | 50 | 89 | 5.10 | -70 | 7 | 08/12/2025 06:00 PM |
| 49008 | 15.2 | 3.91 | 0 | 97 | 49 | 88 | 5.10 | -70 | 8 | 08/12/2025 05:45 PM |
| 49007 | 15.2 | 3.91 | 0 | 99 | 48 | 89 | 5.10 | -71 | 8 | 08/12/2025 05:30 PM |
| 49006 | 15.2 | 3.91 | 0 | 99 | 48 | 90 | 5.10 | -71 | 7 | 08/12/2025 05:15 PM |
| 49005 | 15.2 | 3.91 | 0 | 100 | 48 | 89 | 5.10 | -70 | 7 | 08/12/2025 05:00 PM |
| 49004 | 15.2 | 3.91 | 0 | 101 | 47 | 91 | 5.10 | -72 | 8 | 08/12/2025 04:45 PM |
| 49003 | 15.2 | 3.98 | 0 | 103 | 46 | 93 | 5.10 | -72 | 8 | 08/12/2025 04:30 PM |
| 49002 | 15.2 | 3.91 | 0 | 102 | 46 | 92 | 5.10 | -71 | 8 | 08/12/2025 04:15 PM |
| 49001 | 15.2 | 3.91 | 0 | 103 | 45 | 93 | 5.10 | -71 | 8 | 08/12/2025 04:00 PM |
| 49000 | 15.2 | 3.91 | 0 | 103 | 44 | 92 | 5.10 | -72 | 8 | 08/12/2025 03:45 PM |
| 48999 | 15.2 | 4.01 | 0 | 102 | 44 | 92 | 5.10 | -70 | 7 | 08/12/2025 03:30 PM |